createdAt,value
2022-10-13T00:02:35.000Z,100351.78
2022-10-13T00:07:35.000Z,100354.74
2022-10-13T00:12:34.000Z,100356.15
2022-10-13T00:17:35.000Z,100355.45
2022-10-13T00:22:35.000Z,100356.76
2022-10-13T00:27:34.000Z,100359.72
2022-10-13T00:32:34.000Z,100359.07
2022-10-13T00:37:34.000Z,100358.4
2022-10-13T00:42:35.000Z,100361.03
2022-10-13T00:47:36.000Z,100361.03
2022-10-13T00:52:35.000Z,100366.38
2022-10-13T00:57:34.000Z,100366.76
2022-10-13T01:02:35.000Z,100368.62
2022-10-13T01:07:34.000Z,100372.37
2022-10-13T01:12:35.000Z,100372.54
2022-10-13T01:17:35.000Z,100376.44
2022-10-13T01:22:35.000Z,100377.8
2022-10-13T01:27:34.000Z,100379.53
2022-10-13T01:32:35.000Z,100377.52
2022-10-13T01:37:35.000Z,100379.8
2022-10-13T01:42:35.000Z,100378.37
2022-10-13T01:47:35.000Z,100383.9
2022-10-13T01:52:35.000Z,100385.96
2022-10-13T01:57:34.000Z,100385.96
2022-10-13T02:02:34.000Z,100386.97
2022-10-13T02:07:35.000Z,100389.49
2022-10-13T02:12:35.000Z,100389.99
2022-10-13T02:17:34.000Z,100393.83
2022-10-13T02:22:35.000Z,100396.17
2022-10-13T02:27:35.000Z,100400.6
2022-10-13T02:32:34.000Z,100397.25
2022-10-13T02:37:35.000Z,100398.21
2022-10-13T02:42:34.000Z,100399.72
2022-10-13T02:47:35.000Z,100403.24
2022-10-13T02:52:35.000Z,100400.58
2022-10-13T02:57:35.000Z,100405.32
2022-10-13T03:02:35.000Z,100405.63
2022-10-13T03:07:35.000Z,100408.58
2022-10-13T03:12:35.000Z,100416.16
2022-10-13T03:17:35.000Z,100416.16
2022-10-13T03:22:35.000Z,100417.97
2022-10-13T03:27:35.000Z,100422.94
2022-10-13T03:37:35.000Z,100425.96
2022-10-13T03:42:34.000Z,100428.6
2022-10-13T03:47:35.000Z,100428.6
2022-10-13T03:52:34.000Z,100430.16
2022-10-13T03:57:35.000Z,100432.18
2022-10-13T04:02:35.000Z,100435.49
2022-10-13T04:07:34.000Z,100439.27
2022-10-13T04:12:35.000Z,100445.03
2022-10-13T04:17:34.000Z,100452.12
2022-10-13T04:22:34.000Z,100450.48
2022-10-13T04:27:34.000Z,100450.07
2022-10-13T04:32:34.000Z,100455.71
2022-10-13T04:37:35.000Z,100459.36
2022-10-13T04:42:34.000Z,100461.45
2022-10-13T04:47:35.000Z,100462.43
2022-10-13T04:52:34.000Z,100466.34
2022-10-13T04:57:35.000Z,100468.15
2022-10-13T05:02:35.000Z,100468.15
2022-10-13T05:07:35.000Z,100480.65
2022-10-13T05:12:35.000Z,100475.47
2022-10-13T05:22:35.000Z,100492.57
2022-10-13T05:27:34.000Z,100498.75
2022-10-13T05:32:35.000Z,100497.83
2022-10-13T05:37:35.000Z,100489.76
2022-10-13T05:42:34.000Z,100487.07
2022-10-13T05:47:34.000Z,100492.77
2022-10-13T05:52:35.000Z,100495.96
2022-10-13T05:57:35.000Z,100495.09
2022-10-13T06:02:35.000Z,100495.09
2022-10-13T06:07:34.000Z,100500.74
2022-10-13T06:12:35.000Z,100492.21
2022-10-13T06:17:34.000Z,100495.37
2022-10-13T06:22:44.000Z,100494.67
2022-10-13T06:32:35.000Z,100489.15
2022-10-13T06:37:37.000Z,100487.59
2022-10-13T06:42:35.000Z,100488.2
2022-10-13T06:47:35.000Z,100483.88
2022-10-13T06:52:34.000Z,100494.93
2022-10-13T06:57:34.000Z,100498.91
2022-10-13T07:02:35.000Z,100503.95
2022-10-13T07:07:35.000Z,100506.12
2022-10-13T07:12:35.000Z,100510.4
2022-10-13T07:17:35.000Z,100509.54
2022-10-13T07:22:35.000Z,100509.54
2022-10-13T07:27:35.000Z,100512.13
2022-10-13T07:32:34.000Z,100514.84
2022-10-13T07:37:35.000Z,100516.96
2022-10-13T07:42:35.000Z,100522.55
2022-10-13T07:47:34.000Z,100519.31
2022-10-13T07:52:34.000Z,100518.29
2022-10-13T07:57:34.000Z,100517.65
2022-10-13T08:02:35.000Z,100525.81
2022-10-13T08:07:34.000Z,100537.58
2022-10-13T08:12:35.000Z,100530.55
2022-10-13T08:22:38.000Z,100527.97
2022-10-13T08:27:52.000Z,100524.9
2022-10-13T08:32:35.000Z,100524.9
2022-10-13T08:37:34.000Z,100529.21
2022-10-13T08:42:35.000Z,100533.83
2022-10-13T08:47:34.000Z,100532.18
2022-10-13T08:57:35.000Z,100522.91
2022-10-13T09:02:35.000Z,100521.56
2022-10-13T09:07:35.000Z,100524.76
2022-10-13T09:17:35.000Z,100525.38
2022-10-13T09:22:34.000Z,100522.34
2022-10-13T09:27:34.000Z,100512.52
2022-10-13T09:32:35.000Z,100507.26
2022-10-13T09:37:35.000Z,100506.87
2022-10-13T09:42:35.000Z,100506.87
2022-10-13T09:47:34.000Z,100510.65
2022-10-13T09:52:34.000Z,100504.57
2022-10-13T09:57:35.000Z,100501.01
2022-10-13T10:02:37.000Z,100500.41
2022-10-13T10:07:35.000Z,100505.17
2022-10-13T10:12:38.000Z,100501.31
2022-10-13T10:17:34.000Z,100500.67
2022-10-13T10:22:35.000Z,100506.18
2022-10-13T10:32:35.000Z,100505.87
2022-10-13T10:37:35.000Z,100505.31
2022-10-13T10:42:35.000Z,100511.1
2022-10-13T10:52:34.000Z,100514.2
2022-10-13T10:57:34.000Z,100515.91
2022-10-13T11:02:35.000Z,100516.31
2022-10-13T11:07:34.000Z,100520.08
2022-10-13T11:12:35.000Z,100520.25
2022-10-13T11:17:35.000Z,100520.08
2022-10-13T11:22:34.000Z,100519.23
2022-10-13T11:27:35.000Z,100521.48
2022-10-13T11:32:35.000Z,100521.48
2022-10-13T11:37:35.000Z,100524.09
2022-10-13T11:42:34.000Z,100527.77
2022-10-13T11:47:34.000Z,100526.83
2022-10-13T11:52:35.000Z,100525.31
2022-10-13T11:57:35.000Z,100521.13
2022-10-13T12:02:36.000Z,100516.7
2022-10-13T12:07:35.000Z,100514.13
2022-10-13T12:12:35.000Z,100509.97
2022-10-13T12:17:35.000Z,100516.23
2022-10-13T12:22:34.000Z,100518.38
2022-10-13T12:27:35.000Z,100516.19
2022-10-13T12:32:34.000Z,100512.4
2022-10-13T12:37:34.000Z,100515.96
2022-10-13T12:47:35.000Z,100521.09
2022-10-13T12:52:35.000Z,100520.58
2022-10-13T12:57:34.000Z,100525.78
2022-10-13T13:02:35.000Z,100527.65
2022-10-13T13:07:35.000Z,100536.97
2022-10-13T13:12:35.000Z,100533.49
2022-10-13T13:17:56.000Z,100546.02
2022-10-13T13:32:35.000Z,100553.96
2022-10-13T13:37:34.000Z,100557
2022-10-13T13:42:35.000Z,100551.62
2022-10-13T13:47:35.000Z,100551.62
2022-10-13T13:52:35.000Z,100558.47
2022-10-13T13:57:35.000Z,100559.87
2022-10-13T14:02:35.000Z,100560.35
2022-10-13T14:07:34.000Z,100567.62
2022-10-13T14:17:35.000Z,100581.81
2022-10-13T14:22:35.000Z,100589.29
2022-10-13T14:27:35.000Z,100592
2022-10-13T14:32:35.000Z,100593.79
2022-10-13T14:37:43.000Z,100593.79
2022-10-13T14:42:34.000Z,100596.88
2022-10-13T14:47:35.000Z,100597.32
2022-10-13T14:52:35.000Z,100598.8
2022-10-13T14:57:34.000Z,100607.45
2022-10-13T15:02:35.000Z,100614.07
2022-10-13T15:07:34.000Z,100617.3
2022-10-13T15:12:34.000Z,100623.37
2022-10-13T15:17:35.000Z,100629.98
2022-10-13T15:22:35.000Z,100630.55
2022-10-13T15:27:34.000Z,100637.58
2022-10-13T15:32:36.000Z,100643.15
2022-10-13T15:37:35.000Z,100642.88
2022-10-13T15:42:35.000Z,100640.58
2022-10-13T15:47:35.000Z,100635.62
2022-10-13T15:52:35.000Z,100635.62
2022-10-13T15:57:34.000Z,100632.24
2022-10-13T16:02:35.000Z,100629.87
2022-10-13T16:07:35.000Z,100622.2
2022-10-13T16:12:35.000Z,100631.47
2022-10-13T16:17:35.000Z,100626.29
2022-10-13T16:22:35.000Z,100629.82
2022-10-13T16:27:34.000Z,100631.63
2022-10-13T16:32:35.000Z,100634.64
2022-10-13T16:37:34.000Z,100637.07
2022-10-13T16:42:34.000Z,100640.02
2022-10-13T16:47:35.000Z,100641.36
2022-10-13T16:52:34.000Z,100641.66
2022-10-13T16:57:35.000Z,100641.76
2022-10-13T17:02:34.000Z,100643.84
2022-10-13T17:07:34.000Z,100643.84
2022-10-13T17:12:35.000Z,100647.05
2022-10-13T17:17:34.000Z,100640.75
2022-10-13T17:22:34.000Z,100643.55
2022-10-13T17:27:35.000Z,100641.28
2022-10-13T17:32:35.000Z,100635.93
2022-10-13T17:37:34.000Z,100632.14
2022-10-13T17:42:35.000Z,100631.84
2022-10-13T17:47:35.000Z,100635.23
2022-10-13T17:52:34.000Z,100637.78
2022-10-13T17:57:35.000Z,100639.54
2022-10-13T18:07:35.000Z,100646.78
2022-10-13T18:12:34.000Z,100654.53
2022-10-13T18:17:35.000Z,100661.42
2022-10-13T18:22:35.000Z,100660.41
2022-10-13T18:27:35.000Z,100653.66
2022-10-13T18:32:34.000Z,100648.61
2022-10-13T18:37:35.000Z,100644.81
2022-10-13T18:42:35.000Z,100646.09
2022-10-13T18:47:35.000Z,100649.65
2022-10-13T18:52:35.000Z,100657.08
2022-10-13T18:57:34.000Z,100658.91
2022-10-13T19:02:34.000Z,100659.69
2022-10-13T19:07:34.000Z,100660.93
2022-10-13T19:12:35.000Z,100660.93
2022-10-13T19:17:34.000Z,100660.61
2022-10-13T19:22:35.000Z,100659.51
2022-10-13T19:27:34.000Z,100665.17
2022-10-13T19:32:35.000Z,100655.38
2022-10-13T19:37:34.000Z,100661.47
2022-10-13T19:42:35.000Z,100661.42
2022-10-13T19:47:35.000Z,100661.59
2022-10-13T19:52:34.000Z,100663.85
2022-10-13T19:57:35.000Z,100663.47
2022-10-13T20:02:35.000Z,100660.79
2022-10-13T20:07:35.000Z,100663.47
2022-10-13T20:17:35.000Z,100667.94
2022-10-13T20:22:35.000Z,100666.28
2022-10-13T20:27:34.000Z,100664.46
2022-10-13T20:32:35.000Z,100663.77
2022-10-13T20:37:35.000Z,100663.33
2022-10-13T20:42:35.000Z,100664.15
2022-10-13T20:47:34.000Z,100667.62
2022-10-13T20:52:35.000Z,100667.62
2022-10-13T20:57:35.000Z,100672.07
2022-10-13T21:02:35.000Z,100676.52
2022-10-13T21:07:35.000Z,100675.97
2022-10-13T21:12:35.000Z,100678.77
2022-10-13T21:17:35.000Z,100686.17
2022-10-13T21:22:35.000Z,100683.75
2022-10-13T21:27:35.000Z,100684.83
2022-10-13T21:32:35.000Z,100686.26
2022-10-13T21:37:35.000Z,100682.35
2022-10-13T21:42:34.000Z,100683.92
2022-10-13T21:47:35.000Z,100683.97
2022-10-13T21:52:34.000Z,100684.03
2022-10-13T22:02:35.000Z,100681.79
2022-10-13T22:07:35.000Z,100683.43
2022-10-13T22:12:35.000Z,100682.34
2022-10-13T22:17:35.000Z,100687.53
2022-10-13T22:22:41.000Z,100690.98
2022-10-13T22:27:35.000Z,100690.43
2022-10-13T22:32:35.000Z,100694.46
2022-10-13T22:37:34.000Z,100693.83
2022-10-13T22:42:34.000Z,100693.29
2022-10-13T22:47:35.000Z,100697.82
2022-10-13T22:52:34.000Z,100700.91
2022-10-13T22:57:35.000Z,100700.59
2022-10-13T23:02:35.000Z,100700.59
2022-10-13T23:07:34.000Z,100702.49
2022-10-13T23:12:35.000Z,100704.27
2022-10-13T23:17:35.000Z,100709.96
2022-10-13T23:22:34.000Z,100711.8
2022-10-13T23:27:35.000Z,100711.02
2022-10-13T23:32:35.000Z,100708.91
2022-10-13T23:37:35.000Z,100710.76
2022-10-13T23:42:35.000Z,100712.21
2022-10-13T23:47:35.000Z,100711.13
2022-10-13T23:52:35.000Z,100711.63
2022-10-13T23:57:35.000Z,100716.48
